Monday, December 18, 2017, 11:38 AM EST
Back to Local

KMGW, Morgantown Muni-hart Field

Location: Morgantown, WV, United States Lat: 39.65
Local Time: 11:38 AM EST (16:38 GMT) Lon: -79.917
Time Zone: US/Eastern Elev: 1246 ft

Show me the last for .
Show Decoded

2017-12-18 10:53 METAR KMGW 181553Z 21006G15KT 10SM OVC009 06/03 A3008 RMK AO2 SLP194 T00560028 =
2017-12-18 10:07 METAR KMGW 181507Z 20008KT 10SM OVC009 06/03 A3009 RMK AO2 T00560033 =
2017-12-18 09:53 METAR KMGW 181453Z 20005KT 10SM OVC010 06/03 A3008 RMK AO2 SLP194 T00560028
                 58005 =
2017-12-18 08:53 METAR KMGW 181353Z 20005KT 9SM OVC006 04/03 A3009 RMK AO2 SLP197 T00440028 =
2017-12-18 07:53 METAR KMGW 181253Z 20005KT 10SM OVC007 04/02 A3011 RMK AO2 SLP203 T00440022 =
2017-12-18 06:53 METAR KMGW 181153Z 20005KT 8SM OVC006 04/02 A3010 RMK AO2 CIG 004V009 SLP200
                 T00390022 10050 20039 55000 =
2017-12-18 05:53 METAR KMGW 181053Z AUTO 21004KT 10SM OVC009 04/02 A3010 RMK AO2 SLP199 T00440017
                 =
2017-12-18 04:53 METAR KMGW 180953Z AUTO 20003KT 10SM OVC009 04/02 A3009 RMK AO2 SLP197 T00440017
                 =
2017-12-18 04:43 METAR KMGW 180943Z AUTO 18003KT 10SM OVC009 04/02 A3009 RMK AO2 T00440017 =
2017-12-18 01:53 METAR KMGW 180653Z AUTO 22006KT 10SM OVC018 05/00 A3010 RMK AO2 SLP199 T00500000
                 =
2017-12-18 01:34 METAR KMGW 180634Z AUTO 23004KT 10SM BKN019 OVC036 05/M01 A3010 RMK AO2
                 T00501006 =
2017-12-18 00:53 METAR KMGW 180553Z AUTO 18007KT 10SM FEW030 OVC038 05/M01 A3010 RMK AO2 SLP199
                 T00501006 10056 20039 55005 =
2017-12-18 00:49 METAR KMGW 180549Z AUTO 19006KT 10SM FEW029 OVC038 05/M01 A3010 RMK AO2 =
2017-12-18 00:30 METAR KMGW 180530Z AUTO 20006KT 10SM BKN029 OVC038 06/M02 A3011 RMK AO2
                 T00561017 =
2017-12-17 23:53 METAR KMGW 180453Z AUTO 20007KT 10SM OVC034 06/M02 A3012 RMK AO2 SLP205
                 T00561022 400670017 =
2017-12-17 22:53 METAR KMGW 180353Z 20004KT 10SM OVC046 05/M02 A3012 RMK AO2 SLP207 T00501022 =
2017-12-17 21:53 METAR KMGW 180253Z 20003KT 10SM OVC060 05/M02 A3012 RMK AO2 SLP206 T00501022
                 58005 =
2017-12-17 20:53 METAR KMGW 180153Z 00000KT 10SM OVC060 04/M01 A3013 RMK AO2 SLP211 T00391011 =
2017-12-17 19:53 METAR KMGW 180053Z 00000KT 10SM OVC050 04/M01 A3014 RMK AO2 SLP215 T00441011 =
2017-12-17 18:53 METAR KMGW 172353Z 00000KT 10SM FEW060 OVC075 04/M01 A3013 RMK AO2 RAE2254
                 SLP213 P0000 60000 T00441011 10067 20044 58002 =
2017-12-17 17:53 METAR KMGW 172253Z 00000KT 10SM -RA SCT060 SCT070 OVC090 04/M01 A3014 RMK AO2
                 RAB22 SLP214 P0000 T00441011 =
2017-12-17 16:53 METAR KMGW 172153Z 00000KT 10SM OVC095 06/M02 A3015 RMK AO2 SLP218 T00561017 =
2017-12-17 15:53 METAR KMGW 172053Z 00000KT 10SM OVC090 07/M02 A3014 RMK AO2 SLP214 60000
                 T00671022 55007 =
2017-12-17 14:53 METAR KMGW 171953Z 18003KT 10SM BKN090 OVC110 06/M02 A3011 RMK AO2 RAB05E14
                 SLP203 P0000 T00611022 =
2017-12-17 13:53 METAR KMGW 171853Z 19003KT 10SM OVC090 07/M03 A3013 RMK AO2 SLP211 T00671028 =
2017-12-17 12:53 METAR KMGW 171753Z 20003KT 10SM FEW120 07/M03 A3016 RMK AO2 SLP221 T00671028
                 10067 20017 58031 =
2017-12-17 11:53 METAR KMGW 171653Z 17006KT 10SM CLR 06/M03 A3019 RMK AO2 SLP231 T00611028 =

Support USWX by starting your Amazon purchase here.